Time;durP1;ratioP1;P1;durP2;ratioP2;P2;SDS_P1;SDS_P2;PMS_P1;PMS_P2;Temp;Humidity;BMP_temperature;BMP_pressure;BME280_temperature;BME280_humidity;BME280_pressure;Samples;Min_cycle;Max_cycle;Signal;HPM_P1;HPM_P2
2024/01/03 00:00:55;;;;;;;4.97;4.30;;;;;;;-15.05;80.21;100793.88;5032418;28;20125;-60
2024/01/03 00:03:28;;;;;;;7.72;4.93;;;;;;;-14.86;80.09;100801.44;5042931;28;20143;-60
2024/01/03 00:06:00;;;;;;;6.43;4.68;;;;;;;-14.66;79.93;100808.31;5035686;28;20760;-59
2024/01/03 00:08:34;;;;;;;6.63;4.40;;;;;;;-14.50;79.53;100813.09;5062995;28;20052;-59
2024/01/03 00:11:05;;;;;;;4.97;3.88;;;;;;;-14.31;79.53;100829.81;5040206;28;20053;-59
2024/01/03 00:14:04;;;;;;;7.75;3.97;;;;;;;-14.31;78.84;100824.78;5035996;28;20052;-59
2024/01/03 00:16:37;;;;;;;5.38;4.28;;;;;;;-14.30;78.10;100821.50;5040892;28;20397;-60
2024/01/03 00:19:17;;;;;;;4.88;3.83;;;;;;;-14.26;77.64;100826.06;5042357;28;20051;-60
2024/01/03 00:21:48;;;;;;;6.13;4.38;;;;;;;-14.09;77.88;100817.56;5032349;28;20057;-60
2024/01/03 00:24:20;;;;;;;4.53;4.00;;;;;;;-13.89;77.49;100836.94;5045543;28;20435;-59
2024/01/03 00:26:51;;;;;;;4.90;4.22;;;;;;;-13.89;76.67;100831.91;5036396;28;20110;-60
2024/01/03 00:29:54;;;;;;;6.50;3.92;;;;;;;-13.85;76.42;100834.84;5046563;28;20056;-60
2024/01/03 00:32:25;;;;;;;5.85;4.18;;;;;;;-13.78;75.78;100823.69;5060725;28;20108;-59
2024/01/03 00:35:00;;;;;;;6.53;4.15;;;;;;;-13.65;76.12;100838.22;5055948;28;20067;-59
2024/01/03 00:37:34;;;;;;;5.85;4.85;;;;;;;-13.48;76.05;100818.88;5066120;28;20146;-59
2024/01/03 00:40:27;;;;;;;7.28;3.92;;;;;;;-13.21;75.86;100839.56;5049375;28;20051;-59
2024/01/03 00:42:58;;;;;;;8.57;4.07;;;;;;;-13.14;75.12;100841.88;5055280;28;20051;-60
2024/01/03 00:45:28;;;;;;;6.15;3.92;;;;;;;-13.06;75.00;100845.91;5050850;28;20079;-59
2024/01/03 00:47:59;;;;;;;16.77;6.15;;;;;;;-12.84;74.72;100853.69;5036141;28;20114;-60
2024/01/03 00:50:31;;;;;;;8.43;6.18;;;;;;;-12.75;72.92;100843.53;5046410;28;20044;-60
2024/01/03 00:53:01;;;;;;;12.15;5.25;;;;;;;-12.64;72.01;100840.28;5031569;28;20544;-59
2024/01/03 00:55:32;;;;;;;6.20;4.47;;;;;;;-12.72;71.66;100833.72;5026645;28;20139;-60
2024/01/03 00:58:03;;;;;;;5.22;3.85;;;;;;;-12.76;71.57;100834.19;5024147;28;20555;-60
2024/01/03 01:00:34;;;;;;;5.88;4.60;;;;;;;-12.65;71.87;100840.16;5026658;28;20059;-60
2024/01/03 01:03:05;;;;;;;14.30;4.40;;;;;;;-12.38;72.17;100841.56;5024269;28;20132;-59
2024/01/03 01:05:37;;;;;;;10.63;5.55;;;;;;;-12.20;72.12;100843.13;5022578;28;20055;-59
2024/01/03 01:08:08;;;;;;;14.40;8.02;;;;;;;-11.85;72.02;100847.63;5032970;28;20048;-59
2024/01/03 01:10:39;;;;;;;18.52;8.57;;;;;;;-11.69;71.59;100838.81;5035737;28;20166;-59
2024/01/03 01:13:10;;;;;;;7.72;3.97;;;;;;;-11.53;71.40;100836.75;5045614;28;20086;-59
2024/01/03 01:15:40;;;;;;;7.03;4.15;;;;;;;-11.45;71.01;100847.47;5035344;28;20072;-59
2024/01/03 01:18:10;;;;;;;5.90;3.80;;;;;;;-11.50;70.50;100837.00;5031477;28;20111;-60
2024/01/03 01:20:43;;;;;;;8.68;4.13;;;;;;;-11.46;70.13;100833.97;5016980;28;20057;-60
2024/01/03 01:23:14;;;;;;;8.50;4.22;;;;;;;-11.16;70.39;100832.97;5017211;28;20060;-59
2024/01/03 01:25:44;;;;;;;6.25;4.18;;;;;;;-10.94;70.02;100848.19;5016035;28;20045;-59
2024/01/03 01:28:15;;;;;;;5.75;3.72;;;;;;;-10.72;69.38;100844.81;5026000;28;20090;-59
2024/01/03 01:30:45;;;;;;;6.10;4.18;;;;;;;-10.65;68.76;100842.00;5016422;28;20053;-59
2024/01/03 01:33:14;;;;;;;6.63;4.10;;;;;;;-10.52;68.90;100824.47;5025854;28;20112;-60
2024/01/03 01:35:47;;;;;;;9.40;4.07;;;;;;;-10.28;68.34;100829.63;5015913;28;20816;-60
2024/01/03 01:38:17;;;;;;;10.52;5.97;;;;;;;-10.14;67.87;100833.16;5026597;28;20044;-60
2024/01/03 01:40:49;;;;;;;9.45;5.53;;;;;;;-10.25;66.90;100834.91;5016744;28;20060;-58
2024/01/03 01:43:20;;;;;;;10.30;4.22;;;;;;;-10.49;66.56;100836.47;5026230;28;20448;-59
2024/01/03 01:45:50;;;;;;;9.38;5.03;;;;;;;-10.64;67.04;100818.50;5016667;28;20064;-58
2024/01/03 01:48:23;;;;;;;12.32;5.65;;;;;;;-10.50;66.99;100833.06;5026057;28;20049;-57
2024/01/03 01:50:55;;;;;;;8.30;6.13;;;;;;;-10.50;67.16;100837.25;5016267;28;20412;-58
2024/01/03 01:53:26;;;;;;;5.85;4.35;;;;;;;-10.62;66.54;100838.81;5025915;28;20049;-60
2024/01/03 01:55:56;;;;;;;6.78;3.92;;;;;;;-10.62;67.24;100852.31;5016758;28;20059;-60
2024/01/03 01:58:27;;;;;;;8.25;4.30;;;;;;;-10.76;67.12;100847.84;5026032;28;20060;-59
2024/01/03 02:00:59;;;;;;;9.57;4.25;;;;;;;-10.76;67.58;100848.72;5016374;28;20489;-59
2024/01/03 02:03:29;;;;;;;7.25;4.70;;;;;;;-10.76;67.55;100842.78;5025581;28;20056;-60
2024/01/03 02:06:02;;;;;;;6.90;4.38;;;;;;;-10.82;66.09;100847.38;5006916;28;20053;-60
2024/01/03 02:08:34;;;;;;;10.77;4.20;;;;;;;-10.93;65.68;100842.38;5025835;28;20049;-59
2024/01/03 02:11:05;;;;;;;4.82;3.70;;;;;;;-11.14;65.96;100834.00;5015624;28;20048;-60
2024/01/03 02:13:36;;;;;;;10.27;4.35;;;;;;;-11.05;66.83;100848.13;5016504;28;20048;-59
2024/01/03 02:16:07;;;;;;;7.90;4.75;;;;;;;-10.93;66.96;100834.81;5024680;28;20083;-58
2024/01/03 02:18:41;;;;;;;16.27;4.43;;;;;;;-10.77;66.88;100841.91;5025184;28;20092;-60
2024/01/03 02:21:15;;;;;;;7.90;3.83;;;;;;;-10.71;65.92;100837.34;5025083;28;20055;-58
2024/01/03 02:23:45;;;;;;;7.93;4.10;;;;;;;-10.65;66.13;100829.38;5026086;28;20118;-59
2024/01/03 02:26:16;;;;;;;6.00;3.63;;;;;;;-10.55;66.16;100824.25;5045719;28;20769;-58
2024/01/03 02:28:58;;;;;;;9.63;3.83;;;;;;;-10.34;66.18;100817.41;5035552;28;20052;-58
2024/01/03 02:31:28;;;;;;;6.75;3.72;;;;;;;-10.18;66.05;100821.06;5044881;28;20052;-60
2024/01/03 02:33:59;;;;;;;5.68;3.55;;;;;;;-9.92;65.63;100820.50;5035518;28;20098;-59
2024/01/03 02:36:31;;;;;;;8.85;4.07;;;;;;;-9.71;65.45;100827.09;5044759;28;20055;-60
2024/01/03 02:39:02;;;;;;;7.90;3.95;;;;;;;-9.42;65.40;100821.63;5034397;28;20070;-59
2024/01/03 02:41:33;;;;;;;7.97;3.80;;;;;;;-9.49;65.08;100778.09;5044669;28;20400;-59
2024/01/03 02:44:03;;;;;;;6.45;3.22;;;;;;;-9.07;64.33;100809.75;5035198;28;20815;-60
2024/01/03 02:46:34;;;;;;;7.53;3.40;;;;;;;-9.01;63.71;100810.16;5044344;28;20048;-60
2024/01/03 02:49:04;;;;;;;6.70;3.92;;;;;;;-9.03;63.26;100801.59;5034248;28;20779;-60
2024/01/03 02:51:36;;;;;;;6.10;4.30;;;;;;;-9.02;63.76;100790.69;5041095;28;20400;-60
2024/01/03 02:54:07;;;;;;;5.60;3.20;;;;;;;-8.78;63.87;100789.88;5030771;28;20095;-58
2024/01/03 02:56:40;;;;;;;7.47;2.92;;;;;;;-8.78;62.55;100794.06;5014732;28;20464;-58
2024/01/03 02:59:11;;;;;;;9.80;4.38;;;;;;;-8.91;62.36;100787.25;5025077;28;20048;-59
2024/01/03 03:01:41;;;;;;;6.50;3.30;;;;;;;-8.83;62.76;100785.28;5014546;28;20152;-59
2024/01/03 03:04:18;;;;;;;4.90;3.22;;;;;;;-8.89;62.32;100780.63;5023970;28;20053;-59
2024/01/03 03:06:50;;;;;;;5.82;3.60;;;;;;;-8.86;62.45;100780.88;5032523;28;20405;-61
2024/01/03 03:09:21;;;;;;;4.35;3.47;;;;;;;-8.93;62.24;100776.16;5039557;28;20070;-60
2024/01/03 03:11:51;;;;;;;3.20;2.35;;;;;;;-8.99;61.74;100773.19;5028833;28;20110;-61
2024/01/03 03:14:22;;;;;;;4.68;3.20;;;;;;;-9.06;62.54;100771.88;5039311;28;20504;-60
2024/01/03 03:16:53;;;;;;;5.70;3.80;;;;;;;-9.06;62.91;100760.84;5034005;28;20052;-60
2024/01/03 03:19:23;;;;;;;6.47;2.97;;;;;;;-9.02;62.39;100757.78;5058862;28;20047;-60
2024/01/03 03:21:56;;;;;;;4.68;2.97;;;;;;;-9.12;62.18;100757.13;5048132;28;20484;-60
2024/01/03 03:24:26;;;;;;;4.50;2.90;;;;;;;-9.09;62.45;100755.59;5057910;28;20101;-61
2024/01/03 03:26:56;;;;;;;6.03;3.42;;;;;;;-9.00;62.67;100751.19;5044418;28;20059;-59
2024/01/03 03:29:27;;;;;;;3.58;2.78;;;;;;;-8.99;61.47;100750.38;5057987;28;20244;-61
2024/01/03 03:31:58;;;;;;;6.22;3.22;;;;;;;-9.06;61.60;100748.19;5040734;28;20134;-61
2024/01/03 03:34:28;;;;;;;5.95;2.95;;;;;;;-9.01;62.01;100749.41;5056837;28;20559;-60
2024/01/03 03:37:01;;;;;;;5.85;2.88;;;;;;;-8.99;61.42;100746.19;5048749;28;20047;-61
2024/01/03 03:39:32;;;;;;;5.10;3.13;;;;;;;-8.97;61.89;100736.19;5056632;28;20085;-61
2024/01/03 03:42:02;;;;;;;4.50;2.90;;;;;;;-8.90;62.34;100735.84;5041181;28;20048;-60
2024/01/03 03:44:33;;;;;;;5.25;3.10;;;;;;;-8.87;62.30;100722.50;5058349;28;20051;-60
2024/01/03 03:47:03;;;;;;;5.55;3.60;;;;;;;-8.83;62.80;100720.28;5041799;28;20060;-60
2024/01/03 03:49:34;;;;;;;3.75;2.92;;;;;;;-8.78;61.91;100728.22;5057063;28;20063;-59
2024/01/03 03:52:06;;;;;;;5.65;3.13;;;;;;;-8.79;61.75;100732.38;5046575;28;20446;-60
2024/01/03 03:54:37;;;;;;;5.38;3.10;;;;;;;-8.74;61.95;100731.03;5048836;28;20139;-60
2024/01/03 03:57:07;;;;;;;5.85;3.33;;;;;;;-8.75;61.38;100724.22;5060353;28;20080;-60
2024/01/03 03:59:37;;;;;;;4.25;3.08;;;;;;;-8.79;61.92;100719.72;5052770;28;20136;-61
2024/01/03 04:02:08;;;;;;;5.35;2.65;;;;;;;-8.71;62.33;100726.19;5063201;28;20055;-61
2024/01/03 04:04:38;;;;;;;7.82;3.00;;;;;;;-8.64;62.39;100729.13;5051955;28;20128;-59
2024/01/03 04:07:10;;;;;;;6.68;2.80;;;;;;;-8.66;61.81;100728.13;5060048;28;20101;-59
2024/01/03 04:09:44;;;;;;;5.70;3.05;;;;;;;-8.66;61.99;100738.28;5051217;28;20056;-60
2024/01/03 04:12:15;;;;;;;4.43;3.08;;;;;;;-8.59;62.36;100735.38;5061905;28;20048;-60
2024/01/03 04:14:45;;;;;;;3.47;2.70;;;;;;;-8.49;62.17;100742.81;5052285;28;20064;-60
2024/01/03 04:17:16;;;;;;;3.60;2.83;;;;;;;-8.42;61.88;100750.06;5062559;28;20044;-60
2024/01/03 04:19:46;;;;;;;5.18;2.70;;;;;;;-8.44;61.98;100751.63;5051087;28;20047;-60
2024/01/03 04:22:18;;;;;;;6.07;3.00;;;;;;;-8.50;61.35;100751.22;5061671;28;20126;-60
2024/01/03 04:24:49;;;;;;;5.07;3.20;;;;;;;-8.65;61.08;100755.25;5049379;28;20121;-59
2024/01/03 04:27:19;;;;;;;7.80;3.40;;;;;;;-8.84;61.50;100759.03;5062180;28;20105;-60
2024/01/03 04:29:50;;;;;;;9.52;3.63;;;;;;;-8.93;61.90;100758.44;5051981;28;20427;-61
2024/01/03 04:32:20;;;;;;;6.22;3.40;;;;;;;-8.92;62.05;100755.09;5062366;28;20145;-60
2024/01/03 04:34:51;;;;;;;5.07;2.63;;;;;;;-8.95;61.88;100750.72;5052124;28;20048;-59
2024/01/03 04:37:23;;;;;;;7.50;2.90;;;;;;;-8.92;61.57;100755.09;5061719;28;20082;-60
2024/01/03 04:39:53;;;;;;;4.70;2.90;;;;;;;-8.88;61.40;100751.13;5050967;28;20048;-60
2024/01/03 04:42:24;;;;;;;5.80;3.22;;;;;;;-8.80;62.02;100758.47;5061542;28;20457;-60
2024/01/03 04:44:54;;;;;;;5.35;3.00;;;;;;;-8.71;61.88;100756.59;5051607;28;20079;-59
2024/01/03 04:47:25;;;;;;;4.55;3.00;;;;;;;-8.63;61.98;100761.31;5061914;28;20703;-60
2024/01/03 04:49:55;;;;;;;4.95;3.58;;;;;;;-8.64;61.63;100759.53;5052008;28;20147;-60
2024/01/03 04:52:28;;;;;;;4.45;3.22;;;;;;;-8.68;61.29;100761.00;5061496;28;20415;-59
2024/01/03 04:54:58;;;;;;;6.00;2.85;;;;;;;-8.75;61.08;100754.59;5051442;28;20412;-59
2024/01/03 04:57:27;;;;;;;6.90;2.90;;;;;;;-8.72;61.05;100759.88;5059618;28;20051;-60
2024/01/03 04:59:58;;;;;;;5.20;2.95;;;;;;;-8.72;61.19;100764.94;5051099;28;20109;-60
2024/01/03 05:02:28;;;;;;;5.70;3.30;;;;;;;-8.80;61.26;100755.06;5061738;28;20048;-60
2024/01/03 05:04:59;;;;;;;7.38;3.00;;;;;;;-8.82;61.34;100747.38;5051075;28;20507;-59
2024/01/03 05:07:31;;;;;;;6.95;3.22;;;;;;;-8.85;61.34;100762.34;5061595;28;20052;-59
2024/01/03 05:10:02;;;;;;;4.82;2.75;;;;;;;-8.96;60.99;100758.19;5044315;28;20116;-59
2024/01/03 05:12:32;;;;;;;12.20;3.70;;;;;;;-8.98;61.18;100764.81;5061074;28;20063;-60
2024/01/03 05:15:03;;;;;;;7.63;3.42;;;;;;;-8.95;61.70;100759.97;5048773;28;20155;-59
2024/01/03 05:17:33;;;;;;;7.43;3.28;;;;;;;-8.94;61.62;100752.44;5059355;28;20133;-59
2024/01/03 05:20:05;;;;;;;5.85;3.70;;;;;;;-9.02;61.93;100758.66;5044172;28;20044;-60
2024/01/03 05:22:37;;;;;;;6.05;3.50;;;;;;;-9.01;62.65;100759.53;5052334;28;20059;-59
2024/01/03 05:25:08;;;;;;;11.20;4.53;;;;;;;-9.09;62.94;100751.41;5059457;28;20048;-59
2024/01/03 05:27:39;;;;;;;8.75;3.97;;;;;;;-9.16;63.12;100750.13;5050963;28;20056;-60
2024/01/03 05:30:11;;;;;;;4.80;3.20;;;;;;;-9.24;62.52;100751.19;5061112;28;20092;-59
2024/01/03 05:32:42;;;;;;;6.82;3.60;;;;;;;-9.28;62.39;100754.31;5050948;28;20059;-60
2024/01/03 05:35:13;;;;;;;7.57;3.58;;;;;;;-9.25;62.68;100753.66;5061586;28;20132;-59
2024/01/03 05:37:45;;;;;;;5.97;3.53;;;;;;;-9.33;62.98;100760.69;5048310;28;20241;-60
2024/01/03 05:40:18;;;;;;;6.15;3.42;;;;;;;-9.40;63.05;100761.03;5059070;28;20044;-59
2024/01/03 05:42:48;;;;;;;7.68;3.58;;;;;;;-9.49;62.97;100762.91;5048774;28;20139;-60
2024/01/03 05:45:18;;;;;;;5.38;4.07;;;;;;;-9.56;62.92;100761.56;5060601;28;20072;-59
2024/01/03 05:47:49;;;;;;;6.18;3.40;;;;;;;-9.63;62.94;100760.28;5050149;28;20048;-60
2024/01/03 05:50:20;;;;;;;9.32;3.63;;;;;;;-9.69;63.88;100757.28;5061287;28;20062;-59
2024/01/03 05:52:52;;;;;;;5.40;3.67;;;;;;;-9.73;64.24;100767.06;5050201;28;20830;-61
2024/01/03 05:55:22;;;;;;;7.32;3.42;;;;;;;-9.77;64.28;100768.50;5060662;28;20139;-61
2024/01/03 05:57:53;;;;;;;6.30;3.20;;;;;;;-9.72;65.07;100759.59;5047849;28;20075;-60
2024/01/03 06:00:23;;;;;;;4.50;3.13;;;;;;;-9.79;64.62;100759.94;5057870;28;20129;-61
2024/01/03 06:02:54;;;;;;;6.75;3.63;;;;;;;-9.91;64.20;100761.56;5049671;28;20051;-60
2024/01/03 06:05:26;;;;;;;6.25;3.47;;;;;;;-9.93;64.68;100764.00;5060574;28;20044;-61
2024/01/03 06:07:58;;;;;;;6.43;3.15;;;;;;;-9.94;64.50;100761.34;5049833;28;20052;-61
2024/01/03 06:10:28;;;;;;;5.57;2.80;;;;;;;-10.15;64.45;100741.31;5058321;28;20493;-60
2024/01/03 06:12:59;;;;;;;6.38;3.17;;;;;;;-10.08;64.01;100768.81;5049610;28;20079;-60
2024/01/03 06:15:29;;;;;;;3.97;2.80;;;;;;;-10.23;63.83;100768.53;5059906;28;20063;-61
2024/01/03 06:18:00;;;;;;;7.00;3.92;;;;;;;-10.33;64.07;100770.28;5036538;28;20048;-61
2024/01/03 06:20:30;;;;;;;6.68;3.65;;;;;;;-10.42;64.31;100770.50;5039694;28;20048;-61
2024/01/03 06:23:03;;;;;;;5.30;3.30;;;;;;;-10.47;64.58;100777.72;5030071;28;20057;-61
2024/01/03 06:25:33;;;;;;;7.32;3.88;;;;;;;-10.49;64.80;100779.25;5040189;28;20045;-61
2024/01/03 06:28:04;;;;;;;5.90;3.35;;;;;;;-10.56;64.90;100782.06;5030007;28;20052;-60
2024/01/03 06:30:35;;;;;;;7.88;4.18;;;;;;;-10.66;65.25;100798.19;5035890;28;20057;-61
2024/01/03 06:33:07;;;;;;;6.90;3.33;;;;;;;-10.70;65.81;100797.84;5040150;28;20047;-61
2024/01/03 06:35:37;;;;;;;6.38;3.50;;;;;;;-11.03;65.53;100804.56;5030464;28;20113;-61
2024/01/03 06:38:09;;;;;;;8.20;3.38;;;;;;;-11.26;65.96;100804.41;5040920;28;20056;-61
2024/01/03 06:40:40;;;;;;;7.35;3.38;;;;;;;-11.38;67.07;100812.78;5030639;28;20507;-60
2024/01/03 06:43:11;;;;;;;8.13;3.55;;;;;;;-11.51;67.05;100810.00;5039625;28;20551;-60
2024/01/03 06:45:41;;;;;;;6.03;3.40;;;;;;;-11.83;67.20;100820.94;5030060;28;20056;-61
2024/01/03 06:48:12;;;;;;;5.93;3.80;;;;;;;-12.05;67.82;100827.53;5039828;28;20044;-62
2024/01/03 06:50:43;;;;;;;4.18;3.22;;;;;;;-12.19;68.76;100829.75;5029629;28;20150;-62
2024/01/03 06:53:15;;;;;;;5.13;3.75;;;;;;;-12.25;69.59;100831.78;5039726;28;20480;-62
2024/01/03 06:55:46;;;;;;;6.47;3.83;;;;;;;-12.30;70.39;100824.59;5029847;28;20072;-60
2024/01/03 06:58:19;;;;;;;8.52;4.18;;;;;;;-12.46;70.72;100847.63;5039476;28;20048;-62
2024/01/03 07:00:50;;;;;;;7.22;4.55;;;;;;;-12.76;70.92;100836.72;5029634;28;20052;-61
2024/01/03 07:03:20;;;;;;;5.90;3.90;;;;;;;-12.92;71.26;100848.75;5039831;28;20041;-61
2024/01/03 07:05:51;;;;;;;4.55;3.20;;;;;;;-13.04;72.16;100849.44;5029801;28;20052;-61
2024/01/03 07:08:23;;;;;;;4.63;3.28;;;;;;;-13.19;73.03;100852.28;5039494;28;20491;-60
2024/01/03 07:10:53;;;;;;;4.40;3.17;;;;;;;-13.27;73.26;100854.16;5030131;28;20216;-62
2024/01/03 07:13:24;;;;;;;5.28;3.28;;;;;;;-13.25;73.67;100855.16;5039790;28;20048;-62
2024/01/03 07:15:54;;;;;;;3.30;2.88;;;;;;;-13.26;73.66;100855.88;5029665;28;20072;-61
2024/01/03 07:18:25;;;;;;;5.65;3.17;;;;;;;-13.38;73.90;100864.91;5055855;28;20189;-62
2024/01/03 07:20:55;;;;;;;7.70;3.50;;;;;;;-13.59;73.94;100874.81;5047854;28;21585;-62
2024/01/03 07:23:27;;;;;;;8.85;4.45;;;;;;;-13.95;73.89;100863.28;5056233;28;20060;-60
2024/01/03 07:25:58;;;;;;;4.70;4.20;;;;;;;-14.27;74.41;100862.84;5046630;28;20044;-62
2024/01/03 07:28:28;;;;;;;6.35;4.45;;;;;;;-14.45;75.41;100867.09;5054551;28;20121;-60
2024/01/03 07:30:59;;;;;;;9.43;4.22;;;;;;;-14.53;76.21;100870.53;5044396;28;20113;-61
2024/01/03 07:33:29;;;;;;;5.97;4.70;;;;;;;-14.71;77.28;100863.81;5059753;28;20291;-62
2024/01/03 07:36:00;;;;;;;5.97;4.03;;;;;;;-14.83;78.84;100874.47;5042686;28;20300;-61
2024/01/03 07:38:32;;;;;;;5.25;4.00;;;;;;;-14.88;80.00;100880.66;5060782;28;20768;-63
2024/01/03 07:41:03;;;;;;;5.60;4.30;;;;;;;-14.90;80.57;100883.78;5050613;28;20044;-62
2024/01/03 07:43:33;;;;;;;9.60;5.70;;;;;;;-14.88;80.73;100887.31;5060686;28;20191;-62
2024/01/03 07:46:04;;;;;;;127.45;44.95;;;;;;;-14.87;81.09;100874.94;5049472;28;20047;-61
2024/01/03 07:48:34;;;;;;;155.40;53.28;;;;;;;-14.69;81.37;100884.91;5058731;28;20079;-62
2024/01/03 07:51:05;;;;;;;85.13;33.55;;;;;;;-14.68;81.21;100889.19;5043167;28;20052;-62
2024/01/03 07:53:38;;;;;;;39.30;17.33;;;;;;;-14.73;81.03;100892.88;5055246;28;20454;-61
2024/01/03 07:56:10;;;;;;;17.88;8.77;;;;;;;-14.79;80.76;100888.19;5063758;28;20052;-61
2024/01/03 07:58:41;;;;;;;11.07;5.80;;;;;;;-14.83;80.93;100887.00;5052729;28;20044;-60
2024/01/03 08:01:11;;;;;;;14.55;7.00;;;;;;;-14.81;80.93;100895.56;5060739;28;20105;-61
2024/01/03 08:03:42;;;;;;;7.70;4.93;;;;;;;-14.90;80.76;100899.72;5052588;28;20521;-62
2024/01/03 08:06:19;;;;;;;5.50;4.20;;;;;;;-14.93;80.52;100909.44;5063014;28;20956;-61
2024/01/03 08:08:52;;;;;;;5.78;3.95;;;;;;;-15.08;80.19;100910.50;5050710;28;20056;-63
2024/01/03 08:11:22;;;;;;;6.97;3.67;;;;;;;-15.17;80.21;100907.13;5062551;28;20043;-62
2024/01/03 08:13:53;;;;;;;5.55;4.63;;;;;;;-15.37;79.99;100906.13;5051564;28;20048;-62
2024/01/03 08:16:23;;;;;;;5.05;4.50;;;;;;;-15.51;80.06;100906.41;5060663;28;20127;-62
2024/01/03 08:18:54;;;;;;;7.75;4.60;;;;;;;-15.65;80.14;100915.97;5052719;28;20075;-62
2024/01/03 08:21:24;;;;;;;6.57;4.80;;;;;;;-15.47;80.99;100921.00;5062540;28;20039;-62
2024/01/03 08:23:56;;;;;;;7.22;6.43;;;;;;;-15.40;81.14;100923.34;5052739;28;20621;-61
2024/01/03 08:26:27;;;;;;;4.72;4.25;;;;;;;-15.31;81.20;100929.25;5062535;28;20048;-62
2024/01/03 08:28:58;;;;;;;4.53;4.13;;;;;;;-15.35;81.05;100927.16;5052829;28;20676;-62
2024/01/03 08:31:28;;;;;;;6.35;4.57;;;;;;;-15.43;80.83;100928.06;5060094;28;20052;-61
2024/01/03 08:33:59;;;;;;;56.35;24.63;;;;;;;-15.55;80.72;100926.88;5052029;28;20059;-60
2024/01/03 08:36:41;;;;;;;25.08;13.45;;;;;;;-15.66;80.76;100924.22;5061966;28;20044;-62
2024/01/03 08:39:13;;;;;;;15.65;11.02;;;;;;;-15.73;80.88;100931.88;5048605;28;20067;-62
2024/01/03 08:41:44;;;;;;;9.20;7.20;;;;;;;-15.78;81.21;100928.06;5051431;28;20044;-61
2024/01/03 08:44:14;;;;;;;7.13;5.32;;;;;;;-15.94;81.56;100930.69;5061455;28;20103;-60
2024/01/03 08:46:45;;;;;;;6.32;5.30;;;;;;;-16.03;81.74;100931.38;5051618;28;20044;-63
2024/01/03 08:49:16;;;;;;;5.90;4.97;;;;;;;-16.06;82.15;100933.59;5062016;28;20491;-62
2024/01/03 08:51:48;;;;;;;5.07;4.50;;;;;;;-16.09;82.59;100920.03;5051309;28;20048;-64
2024/01/03 08:54:20;;;;;;;5.80;4.47;;;;;;;-15.76;83.22;100924.09;5041455;28;20056;-62
2024/01/03 08:56:51;;;;;;;7.32;4.45;;;;;;;-15.73;83.38;100919.38;5047288;28;20063;-63
2024/01/03 08:59:21;;;;;;;7.22;5.20;;;;;;;-15.74;82.85;100930.13;5061050;28;20540;-64
2024/01/03 09:01:56;;;;;;;7.93;5.20;;;;;;;-15.67;83.42;100922.44;5051269;28;20044;-61
2024/01/03 09:04:27;;;;;;;6.80;5.00;;;;;;;-15.55;83.37;100924.38;5061251;28;20689;-65
2024/01/03 09:06:57;;;;;;;13.50;8.10;;;;;;;-15.47;83.31;100923.50;5050703;28;20054;-63
2024/01/03 09:09:30;;;;;;;28.10;13.45;;;;;;;-15.41;83.34;100921.59;5061400;28;20126;-63
2024/01/03 09:12:00;;;;;;;40.88;16.10;;;;;;;-15.43;82.95;100930.56;5051816;28;20159;-62
2024/01/03 09:14:31;;;;;;;81.55;29.33;;;;;;;-15.88;82.79;100850.25;5059332;28;20056;-64
2024/01/03 09:17:02;;;;;;;49.38;20.63;;;;;;;-15.57;82.83;100918.31;5046155;28;20056;-62
2024/01/03 09:19:33;;;;;;;36.38;18.75;;;;;;;-15.56;82.93;100915.09;5061102;28;20056;-63
2024/01/03 09:22:03;;;;;;;26.92;13.75;;;;;;;-15.47;83.48;100910.97;5050451;28;20060;-63
2024/01/03 09:24:35;;;;;;;7.47;5.28;;;;;;;-15.39;83.51;100915.09;5060962;28;20140;-63
2024/01/03 09:27:06;;;;;;;24.48;10.98;;;;;;;-15.31;83.82;100916.72;5051624;28;20044;-62
2024/01/03 09:29:37;;;;;;;27.02;13.38;;;;;;;-15.35;83.29;100919.66;5051141;28;20075;-62
2024/01/03 09:32:08;;;;;;;30.33;14.43;;;;;;;-15.34;82.93;100918.94;5058870;28;20047;-63
2024/01/03 09:34:40;;;;;;;32.53;13.45;;;;;;;-15.24;82.78;100915.69;5049162;28;20129;-62
2024/01/03 09:37:11;;;;;;;16.63;8.85;;;;;;;-15.12;82.43;100915.97;5061533;28;20059;-62
2024/01/03 09:39:43;;;;;;;13.20;7.47;;;;;;;-15.10;81.91;100917.00;5050863;28;20509;-61
2024/01/03 09:42:14;;;;;;;7.85;5.03;;;;;;;-15.18;81.23;100910.38;5061273;28;20140;-63
2024/01/03 09:44:47;;;;;;;8.95;5.20;;;;;;;-15.33;80.24;100915.69;5050789;28;20040;-63
2024/01/03 09:47:20;;;;;;;8.38;5.63;;;;;;;-15.56;79.21;100915.09;5060949;28;20040;-63
2024/01/03 09:49:51;;;;;;;9.57;5.10;;;;;;;-15.67;78.81;100927.47;5050220;28;20054;-61
2024/01/03 09:52:21;;;;;;;7.28;4.97;;;;;;;-15.75;78.77;100928.34;5061185;28;20052;-62
2024/01/03 09:54:54;;;;;;;9.90;5.82;;;;;;;-15.82;78.71;100921.00;5050311;28;20127;-64
2024/01/03 09:57:26;;;;;;;10.45;6.45;;;;;;;-15.81;78.96;100927.75;5061173;28;20612;-63
2024/01/03 09:59:58;;;;;;;10.38;6.82;;;;;;;-15.74;79.53;100930.13;5050538;28;20135;-63
2024/01/03 10:02:29;;;;;;;11.60;7.13;;;;;;;-15.69;79.84;100926.41;5060091;28;20135;-63
2024/01/03 10:04:59;;;;;;;12.18;7.03;;;;;;;-15.49;80.37;100922.47;5049820;28;20048;-63
2024/01/03 10:07:33;;;;;;;12.80;6.95;;;;;;;-15.19;80.96;100918.66;5060401;28;20111;-63
2024/01/03 10:10:07;;;;;;;11.73;6.70;;;;;;;-14.88;81.53;100928.31;5050270;28;20051;-62
2024/01/03 10:12:37;;;;;;;15.13;6.72;;;;;;;-14.92;81.04;100916.25;5049987;28;20483;-62
2024/01/03 10:15:16;;;;;;;14.32;6.53;;;;;;;-15.03;80.11;100931.88;5060436;28;20106;-62
2024/01/03 10:17:48;;;;;;;19.85;8.40;;;;;;;-15.15;79.80;100908.16;5049256;28;20139;-63
2024/01/03 10:20:29;;;;;;;14.60;6.95;;;;;;;-14.94;79.85;100922.75;5059442;28;20159;-61
2024/01/03 10:23:08;;;;;;;12.77;6.80;;;;;;;-14.80;80.17;100931.53;5049036;28;20044;-63
2024/01/03 10:25:41;;;;;;;12.05;6.68;;;;;;;-14.75;80.20;100924.47;5049792;28;20060;-63
2024/01/03 10:28:15;;;;;;;16.80;6.90;;;;;;;-14.70;79.88;100930.78;5059340;28;20051;-61
2024/01/03 10:30:53;;;;;;;31.35;8.27;;;;;;;-14.76;79.82;100922.72;5048919;28;20526;-62
2024/01/03 10:33:24;;;;;;;14.82;6.07;;;;;;;-14.70;80.23;100929.19;5059218;28;20074;-63
2024/01/03 10:35:55;;;;;;;15.85;7.35;;;;;;;-14.60;80.51;100930.91;5049412;28;20501;-62
2024/01/03 10:38:27;;;;;;;20.17;7.07;;;;;;;-14.51;80.70;100935.88;5059591;28;20051;-61
2024/01/03 10:41:01;;;;;;;17.58;7.22;;;;;;;-14.54;80.29;100931.50;5049252;28;20060;-63
2024/01/03 10:43:33;;;;;;;28.17;8.20;;;;;;;-14.55;80.18;100934.72;5057424;28;20376;-63
2024/01/03 10:46:07;;;;;;;35.83;11.05;;;;;;;-14.56;80.17;100927.97;5039174;28;20052;-63
2024/01/03 10:48:38;;;;;;;40.33;16.60;;;;;;;-14.59;80.15;100927.69;5049026;28;20048;-63
2024/01/03 10:51:14;;;;;;;20.80;9.15;;;;;;;-14.62;80.01;100932.41;5060067;28;20044;-63
2024/01/03 10:53:48;;;;;;;11.18;6.40;;;;;;;-14.88;80.01;100933.34;5049408;28;20097;-63
2024/01/03 10:56:21;;;;;;;19.52;10.55;;;;;;;-14.91;81.07;100923.03;5059443;28;20048;-64
2024/01/03 10:58:53;;;;;;;9.73;5.10;;;;;;;-14.80;81.32;100921.50;5048935;28;20108;-63
2024/01/03 11:01:30;;;;;;;6.13;5.10;;;;;;;-14.81;81.57;100909.72;5059241;28;20063;-63
2024/01/03 11:04:09;;;;;;;8.25;4.60;;;;;;;-14.72;82.09;100907.19;5048433;28;20163;-61
2024/01/03 11:07:03;;;;;;;47.90;14.50;;;;;;;-14.43;82.11;100928.31;5045927;28;20048;-61
2024/01/03 11:09:35;;;;;;;53.15;17.80;;;;;;;-14.21;82.53;100927.81;5059093;28;20139;-62
2024/01/03 11:12:13;;;;;;;39.75;14.13;;;;;;;-14.02;82.76;100933.78;5049522;28;20125;-63
2024/01/03 11:14:45;;;;;;;40.78;13.95;;;;;;;-13.99;82.38;100936.56;5047843;28;20434;-62
2024/01/03 11:17:33;;;;;;;29.88;12.93;;;;;;;-13.98;81.92;100932.41;5056658;28;20136;-62
2024/01/03 11:20:12;;;;;;;10.93;6.47;;;;;;;-14.36;81.69;100877.94;5047869;28;20044;-61
2024/01/03 11:23:01;;;;;;;12.45;6.20;;;;;;;-14.41;81.49;100879.16;5049040;28;21262;-64
2024/01/03 11:25:51;;;;;;;9.85;4.95;;;;;;;-13.95;81.76;100943.63;5058939;28;20895;-62
2024/01/03 11:28:37;;;;;;;7.90;5.10;;;;;;;-13.96;81.64;100939.34;5058333;28;20044;-62
2024/01/03 11:31:08;;;;;;;6.60;5.15;;;;;;;-13.95;81.27;100937.72;5042262;28;21243;-61
2024/01/03 11:33:42;;;;;;;7.28;4.57;;;;;;;-13.84;81.90;100936.19;5048641;28;20079;-61
2024/01/03 11:36:33;;;;;;;93.70;21.70;;;;;;;-13.93;81.58;100932.06;5049766;28;20143;-62
2024/01/03 11:39:04;;;;;;;236.93;45.15;;;;;;;-13.91;81.98;100945.66;5041542;28;20079;-60